Time;durP1;ratioP1;P1;durP2;ratioP2;P2;SDS_P1;SDS_P2;PMS_P1;PMS_P2;Temp;Humidity;BMP_temperature;BMP_pressure;BME280_temperature;BME280_humidity;BME280_pressure;Samples;Min_cycle;Max_cycle;Signal;HPM_P1;HPM_P2
2023/10/02 00:01:52;;;;;;;16.50;8.13;;;16.60;99.90;;;;;;5058150;28;20056;-74
2023/10/02 00:04:24;;;;;;;21.65;9.45;;;16.60;99.90;;;;;;5060507;28;20017;-74
2023/10/02 00:07:08;;;;;;;20.87;8.87;;;16.60;99.90;;;;;;5058376;28;20056;-75
2023/10/02 00:09:49;;;;;;;18.88;8.38;;;16.50;99.90;;;;;;5055460;28;20039;-74
2023/10/02 00:12:19;;;;;;;15.07;8.50;;;16.50;99.90;;;;;;5041355;28;20056;-74
2023/10/02 00:14:48;;;;;;;18.25;8.57;;;16.40;99.90;;;;;;5042919;28;20025;-74
2023/10/02 00:17:15;;;;;;;17.00;8.05;;;16.40;99.90;;;;;;5056333;28;20052;-74
2023/10/02 00:19:46;;;;;;;16.73;8.50;;;16.40;99.90;;;;;;5059479;28;20018;-74
2023/10/02 00:22:41;;;;;;;19.90;8.93;;;16.40;99.90;;;;;;5055483;28;20021;-74
2023/10/02 00:25:19;;;;;;;17.38;8.43;;;16.40;99.90;;;;;;5057344;28;20274;-74
2023/10/02 00:27:51;;;;;;;18.65;8.23;;;16.40;99.90;;;;;;5057330;28;20109;-74
2023/10/02 00:30:22;;;;;;;17.90;9.32;;;16.30;99.90;;;;;;5056902;28;20021;-74
2023/10/02 00:32:51;;;;;;;17.92;8.68;;;16.30;99.90;;;;;;5040159;28;20021;-74
2023/10/02 00:35:22;;;;;;;16.52;8.45;;;16.30;99.90;;;;;;5040259;28;20021;-74
2023/10/02 00:37:47;;;;;;;17.30;9.00;;;16.30;99.90;;;;;;5057714;28;20033;-74
2023/10/02 00:40:22;;;;;;;16.95;8.90;;;16.20;99.90;;;;;;5058662;28;20021;-74
2023/10/02 00:42:58;;;;;;;19.77;8.55;;;16.20;99.90;;;;;;5039829;28;20052;-74
2023/10/02 00:45:49;;;;;;;19.60;9.02;;;16.20;99.90;;;;;;5052892;28;20045;-74
2023/10/02 00:48:28;;;;;;;16.13;8.48;;;16.10;99.90;;;;;;5057346;28;20060;-74
2023/10/02 00:50:59;;;;;;;18.70;8.95;;;16.10;99.90;;;;;;5039588;28;20124;-74
2023/10/02 00:53:38;;;;;;;17.17;8.05;;;16.00;99.90;;;;;;5057375;28;20131;-74
2023/10/02 00:56:19;;;;;;;20.70;8.77;;;16.00;99.90;;;;;;5057804;28;20096;-75
2023/10/02 00:58:55;;;;;;;15.75;8.52;;;16.00;99.90;;;;;;5035700;28;20021;-73
2023/10/02 01:01:27;;;;;;;17.73;8.02;;;15.90;99.90;;;;;;5040121;28;20041;-74
2023/10/02 01:04:11;;;;;;;17.00;8.63;;;15.90;99.90;;;;;;5040190;28;20044;-74
2023/10/02 01:06:54;;;;;;;19.75;9.18;;;15.90;99.90;;;;;;5040387;28;20029;-73
2023/10/02 01:09:30;;;;;;;17.02;8.48;;;15.90;99.90;;;;;;5052010;28;20028;-74
2023/10/02 01:12:01;;;;;;;20.20;9.38;;;15.90;99.90;;;;;;5054127;28;20040;-74
2023/10/02 01:17:21;;;;;;;17.65;9.20;;;15.80;99.90;;;;;;5058460;28;20020;-74
2023/10/02 01:19:53;;;;;;;17.20;8.88;;;15.80;99.90;;;;;;5035623;28;20021;-74
2023/10/02 01:22:27;;;;;;;19.60;9.02;;;15.80;99.90;;;;;;5056482;28;22115;-74
2023/10/02 01:25:14;;;;;;;18.55;9.52;;;15.80;99.90;;;;;;5057399;28;20041;-73
2023/10/02 01:27:46;;;;;;;19.60;8.75;;;15.80;99.90;;;;;;5038981;28;20038;-74
2023/10/02 01:30:15;;;;;;;18.42;9.23;;;15.80;99.90;;;;;;5057732;28;20045;-74
2023/10/02 01:33:13;;;;;;;20.95;8.68;;;15.80;99.90;;;;;;5056891;28;20081;-74
2023/10/02 01:35:48;;;;;;;21.08;8.73;;;15.70;99.90;;;;;;5055768;28;20025;-74
2023/10/02 01:38:21;;;;;;;18.25;8.20;;;15.70;99.90;;;;;;5055061;28;20028;-73
2023/10/02 01:40:53;;;;;;;18.30;9.10;;;15.70;99.90;;;;;;5053112;28;20029;-74
2023/10/02 01:43:22;;;;;;;17.00;8.57;;;15.70;99.90;;;;;;5056717;28;20035;-74
2023/10/02 01:45:48;;;;;;;18.45;8.18;;;15.60;99.90;;;;;;5055981;28;20029;-74
2023/10/02 01:48:36;;;;;;;18.55;8.85;;;15.60;99.90;;;;;;5036809;28;21307;-74
2023/10/02 01:51:32;;;;;;;19.13;9.00;;;15.60;99.90;;;;;;5038327;28;20026;-74
2023/10/02 01:54:03;;;;;;;19.10;8.82;;;15.60;99.90;;;;;;5048590;28;20040;-74
2023/10/02 01:56:35;;;;;;;21.45;9.30;;;15.50;99.90;;;;;;5055993;28;20033;-74
2023/10/02 01:59:10;;;;;;;17.08;8.27;;;15.60;99.90;;;;;;5056911;28;20035;-74
2023/10/02 02:01:46;;;;;;;20.23;8.88;;;15.60;99.90;;;;;;5038362;28;20041;-74
2023/10/02 02:04:17;;;;;;;18.80;9.07;;;15.50;99.90;;;;;;5055196;28;20041;-74
2023/10/02 02:06:53;;;;;;;23.17;8.63;;;15.60;99.90;;;;;;5055344;28;20033;-74
2023/10/02 02:09:23;;;;;;;19.10;9.00;;;15.50;99.90;;;;;;5039225;28;20052;-74
2023/10/02 02:12:07;;;;;;;21.75;9.63;;;15.50;99.90;;;;;;5035392;28;20025;-74
2023/10/02 02:15:04;;;;;;;20.40;9.50;;;15.50;99.90;;;;;;5056479;28;20014;-74
2023/10/02 02:17:29;;;;;;;24.55;10.00;;;15.50;99.90;;;;;;5038684;28;20035;-73
2023/10/02 02:19:59;;;;;;;20.48;9.50;;;15.50;99.90;;;;;;5036552;28;20049;-74
2023/10/02 02:22:31;;;;;;;18.17;9.07;;;15.50;99.90;;;;;;5038658;28;20032;-75
2023/10/02 02:25:00;;;;;;;20.23;9.98;;;15.50;99.90;;;;;;5057292;28;20025;-74
2023/10/02 02:27:27;;;;;;;21.58;9.48;;;15.50;99.90;;;;;;5055668;28;20045;-74
2023/10/02 02:30:00;;;;;;;21.63;9.90;;;15.50;99.90;;;;;;5054739;28;20096;-74
2023/10/02 02:32:54;;;;;;;19.77;10.13;;;15.50;99.90;;;;;;5054308;28;20037;-74
2023/10/02 02:35:21;;;;;;;23.73;9.77;;;15.50;99.90;;;;;;5038448;28;20029;-73
2023/10/02 02:37:49;;;;;;;20.13;9.73;;;15.50;99.90;;;;;;5056989;28;20016;-74
2023/10/02 02:40:29;;;;;;;19.17;9.82;;;15.50;99.90;;;;;;5036511;28;20018;-75
2023/10/02 02:42:56;;;;;;;22.85;10.15;;;15.50;99.90;;;;;;5055940;28;20021;-74
2023/10/02 02:45:29;;;;;;;18.13;9.32;;;15.50;99.90;;;;;;5037690;28;20025;-74
2023/10/02 02:47:57;;;;;;;21.75;10.20;;;15.50;99.90;;;;;;5037640;28;20052;-74
2023/10/02 02:50:28;;;;;;;24.45;11.20;;;15.50;99.90;;;;;;5034287;28;20014;-75
2023/10/02 02:55:38;;;;;;;28.60;12.77;;;15.50;99.90;;;;;;5055212;28;20044;-74
2023/10/02 02:58:06;;;;;;;20.77;11.35;;;15.50;99.90;;;;;;5051123;28;20033;-74
2023/10/02 03:00:35;;;;;;;28.50;11.95;;;15.50;99.90;;;;;;5037783;28;20036;-74
2023/10/02 03:03:02;;;;;;;25.42;12.25;;;15.50;99.90;;;;;;5056622;28;20048;-74
2023/10/02 03:05:42;;;;;;;27.65;12.27;;;15.50;99.90;;;;;;5056380;28;20088;-74
2023/10/02 03:08:12;;;;;;;27.17;12.32;;;15.50;99.90;;;;;;5037219;28;20037;-74
2023/10/02 03:10:39;;;;;;;24.95;11.68;;;15.50;99.90;;;;;;5038272;28;20032;-74
2023/10/02 03:13:08;;;;;;;24.60;12.10;;;15.40;99.90;;;;;;5038614;28;20057;-74
2023/10/02 03:15:46;;;;;;;27.38;11.23;;;15.40;99.90;;;;;;5054689;28;20017;-74
2023/10/02 03:18:31;;;;;;;29.55;12.40;;;15.40;99.90;;;;;;5060706;28;20246;-74
2023/10/02 03:23:39;;;;;;;25.27;11.13;;;15.40;99.90;;;;;;5058271;28;20033;-74
2023/10/02 03:26:27;;;;;;;26.10;11.10;;;15.40;99.90;;;;;;5041131;28;20026;-74
2023/10/02 03:29:03;;;;;;;27.30;10.85;;;15.40;99.90;;;;;;5059308;28;20043;-74
2023/10/02 03:31:36;;;;;;;23.90;10.98;;;15.40;99.90;;;;;;5037486;28;20055;-74
2023/10/02 03:37:00;;;;;;;21.17;10.68;;;15.40;99.90;;;;;;5059839;28;20048;-74
2023/10/02 03:42:23;;;;;;;26.17;11.95;;;15.30;99.90;;;;;;5058010;28;20044;-74
2023/10/02 03:44:56;;;;;;;21.83;10.75;;;15.30;99.90;;;;;;5057508;28;20025;-73
2023/10/02 03:47:25;;;;;;;23.30;11.45;;;15.30;99.90;;;;;;5060762;28;20084;-74
2023/10/02 03:50:00;;;;;;;24.02;11.80;;;15.30;99.90;;;;;;5056947;28;20024;-74
2023/10/02 03:52:30;;;;;;;26.77;13.43;;;15.30;99.90;;;;;;5054109;28;20025;-75
2023/10/02 03:54:56;;;;;;;25.77;13.27;;;15.30;99.90;;;;;;5042293;28;20038;-74
2023/10/02 03:57:47;;;;;;;29.38;13.38;;;15.30;99.90;;;;;;5039487;28;20013;-74
2023/10/02 04:00:22;;;;;;;27.65;13.15;;;15.30;99.90;;;;;;5037604;28;20017;-74
2023/10/02 04:02:52;;;;;;;29.27;13.18;;;15.20;99.90;;;;;;5058645;28;20022;-74
2023/10/02 04:05:42;;;;;;;32.83;13.82;;;15.20;99.90;;;;;;5057471;28;20026;-74
2023/10/02 04:08:17;;;;;;;26.67;14.60;;;15.20;99.90;;;;;;5040874;28;20119;-75
2023/10/02 04:10:57;;;;;;;30.63;14.27;;;15.20;99.90;;;;;;5041197;28;20014;-73
2023/10/02 04:13:31;;;;;;;29.25;14.65;;;15.20;99.90;;;;;;5042557;28;20035;-74
2023/10/02 04:18:47;;;;;;;26.65;14.63;;;15.10;99.90;;;;;;5058000;28;20025;-74
2023/10/02 04:21:26;;;;;;;28.83;14.50;;;15.10;99.90;;;;;;5057035;28;20033;-74
2023/10/02 04:23:58;;;;;;;34.00;17.52;;;15.00;99.90;;;;;;5058346;28;20056;-77
2023/10/02 04:26:28;;;;;;;39.90;17.92;;;15.10;99.90;;;;;;5058330;28;20036;-74
2023/10/02 04:28:58;;;;;;;32.53;16.67;;;15.10;99.90;;;;;;5059585;28;20028;-74
2023/10/02 04:31:29;;;;;;;31.95;16.27;;;15.10;99.90;;;;;;5059115;28;20025;-75
2023/10/02 04:36:41;;;;;;;30.73;15.23;;;15.00;99.90;;;;;;5058380;28;20183;-74
2023/10/02 04:39:51;;;;;;;27.10;14.48;;;15.00;99.90;;;;;;5036877;28;20193;-74
2023/10/02 04:42:18;;;;;;;30.02;14.57;;;15.00;99.90;;;;;;5057246;28;20018;-74
2023/10/02 04:44:58;;;;;;;29.42;14.02;;;15.00;99.90;;;;;;5056288;28;20017;-73
2023/10/02 04:47:26;;;;;;;28.15;13.23;;;15.00;99.90;;;;;;5039296;28;20032;-73
2023/10/02 04:55:32;;;;;;;26.52;12.98;;;15.00;99.90;;;;;;5027699;28;20029;-73
2023/10/02 04:58:47;;;;;;;26.90;12.52;;;15.00;99.90;;;;;;5041192;28;20049;-73
2023/10/02 05:03:49;;;;;;;23.80;11.60;;;14.90;99.90;;;;;;5058656;28;20081;-75
2023/10/02 05:06:16;;;;;;;26.50;12.35;;;14.90;99.90;;;;;;5039524;28;20021;-74
2023/10/02 05:11:46;;;;;;;24.13;10.98;;;14.90;99.90;;;;;;5060245;28;20025;-73
2023/10/02 05:14:14;;;;;;;23.85;11.90;;;14.90;99.90;;;;;;5041224;28;20041;-73
2023/10/02 05:16:42;;;;;;;22.52;10.95;;;14.90;99.90;;;;;;5056497;28;20014;-73
2023/10/02 05:19:09;;;;;;;24.40;11.32;;;14.90;99.90;;;;;;5040583;28;20025;-73
2023/10/02 05:21:55;;;;;;;25.10;11.38;;;14.90;99.90;;;;;;5053723;28;20013;-73
2023/10/02 05:24:20;;;;;;;24.75;11.85;;;14.90;99.90;;;;;;5038537;28;20096;-73
2023/10/02 05:26:49;;;;;;;26.17;13.20;;;14.90;99.90;;;;;;5056631;28;20024;-73
2023/10/02 05:29:36;;;;;;;23.42;13.00;;;14.90;99.90;;;;;;5055905;28;20029;-73
2023/10/02 05:32:23;;;;;;;22.42;11.50;;;14.90;99.90;;;;;;5039660;28;20052;-73
2023/10/02 05:37:42;;;;;;;24.73;11.15;;;14.90;99.90;;;;;;5056184;28;20032;-73
2023/10/02 05:43:09;;;;;;;23.35;11.48;;;14.90;99.90;;;;;;5056512;28;20032;-73
2023/10/02 05:48:15;;;;;;;25.80;11.63;;;14.80;99.90;;;;;;5055696;28;20108;-73
2023/10/02 05:50:48;;;;;;;22.52;10.77;;;14.80;99.90;;;;;;5056330;28;20064;-73
2023/10/02 05:53:19;;;;;;;22.30;10.10;;;14.80;99.90;;;;;;5038797;28;20030;-74
2023/10/02 05:55:57;;;;;;;21.00;11.30;;;14.80;99.90;;;;;;5056155;28;20021;-73
2023/10/02 05:58:32;;;;;;;25.00;11.15;;;14.80;99.90;;;;;;5039552;28;20018;-73
2023/10/02 06:01:05;;;;;;;22.88;11.20;;;14.80;99.90;;;;;;5056054;28;20133;-74
2023/10/02 06:03:35;;;;;;;19.40;10.88;;;14.80;99.90;;;;;;5035449;28;20030;-73
2023/10/02 06:06:15;;;;;;;29.30;13.77;;;14.80;99.90;;;;;;5056949;28;20051;-73
2023/10/02 06:08:52;;;;;;;20.45;10.27;;;14.80;99.90;;;;;;5055491;28;20548;-73
2023/10/02 06:11:34;;;;;;;23.05;10.52;;;14.80;99.90;;;;;;5034982;28;20040;-73
2023/10/02 06:14:14;;;;;;;22.45;10.55;;;14.90;99.90;;;;;;5052020;28;20088;-73
2023/10/02 06:16:45;;;;;;;23.52;10.65;;;14.90;99.90;;;;;;5054875;28;20049;-74
2023/10/02 06:19:15;;;;;;;25.23;11.95;;;14.90;99.90;;;;;;5040271;28;20017;-73
2023/10/02 06:24:27;;;;;;;25.73;10.45;;;15.00;99.90;;;;;;5055099;28;20029;-74
2023/10/02 06:27:04;;;;;;;24.20;12.80;;;15.00;99.90;;;;;;5054413;28;20108;-73
2023/10/02 06:29:37;;;;;;;24.20;12.75;;;15.00;99.90;;;;;;5053769;28;20029;-73
2023/10/02 06:32:10;;;;;;;26.75;12.82;;;15.00;99.90;;;;;;5055041;28;20553;-75
2023/10/02 06:34:38;;;;;;;26.77;13.45;;;15.10;99.90;;;;;;5038349;28;20021;-73
2023/10/02 06:37:11;;;;;;;26.85;12.50;;;15.10;99.90;;;;;;5035101;28;20021;-73
2023/10/02 06:39:39;;;;;;;25.10;10.75;;;15.10;99.90;;;;;;5055170;28;20048;-73
2023/10/02 06:42:15;;;;;;;30.80;11.13;;;15.20;99.90;;;;;;5038704;28;20088;-73
2023/10/02 06:44:42;;;;;;;25.58;11.40;;;15.20;99.90;;;;;;5038003;28;20225;-73
2023/10/02 06:47:13;;;;;;;26.75;10.95;;;15.20;99.90;;;;;;5053677;28;20013;-73
2023/10/02 06:49:44;;;;;;;24.73;11.43;;;15.30;99.90;;;;;;5056641;28;20224;-73
2023/10/02 06:52:15;;;;;;;25.90;12.43;;;15.30;99.90;;;;;;5057917;28;20024;-73
2023/10/02 06:54:48;;;;;;;25.02;11.50;;;15.30;99.90;;;;;;5062245;28;20009;-73
2023/10/02 06:57:20;;;;;;;24.90;11.45;;;15.40;99.90;;;;;;5057786;28;20113;-73
2023/10/02 06:59:51;;;;;;;17.60;9.13;;;15.40;99.90;;;;;;5063068;28;20017;-73
2023/10/02 07:02:23;;;;;;;26.27;11.90;;;15.40;99.90;;;;;;5044236;28;20052;-73
2023/10/02 07:04:55;;;;;;;24.00;12.05;;;15.50;99.90;;;;;;5061059;28;20025;-73
2023/10/02 07:07:26;;;;;;;23.05;10.45;;;15.50;99.90;;;;;;5062873;28;20021;-73
2023/10/02 07:10:07;;;;;;;29.80;12.27;;;15.60;99.90;;;;;;5061838;28;20052;-73
2023/10/02 07:12:40;;;;;;;18.17;9.80;;;15.60;99.90;;;;;;5057536;28;20025;-74
2023/10/02 07:15:22;;;;;;;19.88;10.43;;;15.60;99.90;;;;;;5060836;28;20116;-73
2023/10/02 07:17:48;;;;;;;20.23;9.48;;;15.60;99.90;;;;;;5061178;28;20092;-73
2023/10/02 07:20:15;;;;;;;27.55;9.75;;;15.60;99.90;;;;;;5061224;28;20079;-74
2023/10/02 07:22:46;;;;;;;23.27;9.70;;;15.70;99.90;;;;;;5061713;28;20036;-73
2023/10/02 07:25:11;;;;;;;21.10;9.38;;;15.70;99.90;;;;;;5061528;28;20025;-74
2023/10/02 07:27:37;;;;;;;23.67;10.05;;;15.80;99.90;;;;;;5040593;28;20057;-74
2023/10/02 07:30:04;;;;;;;21.63;10.30;;;15.80;99.90;;;;;;5061005;28;20029;-74
2023/10/02 07:32:35;;;;;;;23.08;10.05;;;15.90;99.90;;;;;;5061520;28;20031;-73
2023/10/02 07:35:21;;;;;;;20.85;9.82;;;15.90;99.90;;;;;;5056643;28;20061;-73
2023/10/02 07:37:57;;;;;;;21.10;9.73;;;15.90;99.90;;;;;;5044225;28;20037;-74
2023/10/02 07:40:27;;;;;;;27.92;9.10;;;16.00;99.90;;;;;;5040685;28;20025;-74
2023/10/02 07:42:53;;;;;;;21.45;10.68;;;16.00;99.90;;;;;;5044544;28;20026;-74
2023/10/02 07:45:25;;;;;;;26.48;10.50;;;16.10;99.90;;;;;;5043570;28;20025;-74
2023/10/02 07:48:16;;;;;;;;;;;16.10;99.90;;;;;;5044051;28;20052;-73
2023/10/02 07:50:44;;;;;;;20.10;9.18;;;16.10;99.90;;;;;;5043619;28;19943;-73
2023/10/02 07:53:11;;;;;;;28.35;11.35;;;16.20;99.90;;;;;;5056769;28;20044;-73
2023/10/02 07:55:47;;;;;;;23.27;10.50;;;16.20;99.90;;;;;;5063275;28;20056;-73
2023/10/02 07:58:17;;;;;;;19.63;9.32;;;16.30;99.90;;;;;;5063079;28;20009;-73
2023/10/02 08:00:49;;;;;;;23.42;11.05;;;16.30;99.90;;;;;;5044209;28;20029;-74
2023/10/02 08:03:31;;;;;;;23.52;10.90;;;16.40;99.90;;;;;;5057024;28;20025;-73
2023/10/02 08:06:01;;;;;;;20.48;9.98;;;16.40;99.90;;;;;;5041202;28;20034;-74
2023/10/02 08:08:33;;;;;;;19.33;9.32;;;16.50;99.90;;;;;;5041567;28;20041;-73
2023/10/02 08:11:06;;;;;;;20.40;10.32;;;16.60;99.90;;;;;;5057769;28;20053;-74
2023/10/02 08:13:35;;;;;;;26.27;9.88;;;16.60;99.90;;;;;;5039268;28;20040;-73
2023/10/02 08:16:12;;;;;;;25.08;9.73;;;16.70;99.90;;;;;;5041117;28;20032;-73
2023/10/02 08:21:35;;;;;;;20.60;9.25;;;16.90;99.90;;;;;;5058314;28;20068;-75
2023/10/02 08:24:10;;;;;;;21.60;10.02;;;16.90;99.90;;;;;;5056600;28;20028;-77
2023/10/02 08:26:43;;;;;;;22.17;9.85;;;17.00;99.90;;;;;;5039438;28;20024;-75
2023/10/02 08:29:14;;;;;;;20.35;9.32;;;17.10;99.90;;;;;;5052179;28;20082;-76
2023/10/02 08:31:44;;;;;;;20.30;9.55;;;17.10;99.90;;;;;;5049977;28;20026;-75
2023/10/02 08:34:20;;;;;;;21.85;9.50;;;17.20;99.90;;;;;;5024466;28;20356;-78
2023/10/02 08:37:05;;;;;;;20.92;10.05;;;17.30;99.90;;;;;;5048180;28;20517;-75
2023/10/02 08:39:44;;;;;;;21.00;9.82;;;17.30;99.90;;;;;;5040004;28;20025;-77
2023/10/02 08:42:14;;;;;;;18.95;10.02;;;17.40;99.90;;;;;;5047579;28;20058;-78
2023/10/02 08:44:42;;;;;;;19.75;8.95;;;17.50;99.90;;;;;;5018424;28;20029;-79
2023/10/02 08:47:12;;;;;;;20.63;8.93;;;17.50;99.90;;;;;;5037162;28;20049;-81
2023/10/02 08:49:40;;;;;;;23.65;9.63;;;17.60;99.90;;;;;;5036011;28;20107;-81
2023/10/02 08:52:13;;;;;;;23.40;10.27;;;17.70;99.90;;;;;;5034570;28;20049;-78
2023/10/02 08:54:44;;;;;;;18.90;9.55;;;17.70;99.90;;;;;;5034132;28;20156;-82
2023/10/02 08:57:10;;;;;;;20.55;9.35;;;17.80;99.90;;;;;;5014729;28;20025;-79
2023/10/02 08:59:40;;;;;;;22.85;9.98;;;17.80;99.90;;;;;;5031648;28;20107;-81
2023/10/02 09:02:16;;;;;;;23.00;10.45;;;17.90;99.90;;;;;;5034631;28;20079;-82
2023/10/02 09:04:53;;;;;;;23.35;10.13;;;17.90;99.90;;;;;;5026487;28;20060;-84
2023/10/02 09:07:44;;;;;;;22.55;10.65;;;18.00;99.90;;;;;;5015105;28;20026;-82
2023/10/02 09:10:26;;;;;;;24.92;10.30;;;17.90;99.90;;;;;;5030348;28;20029;-82
2023/10/02 09:13:13;;;;;;;21.58;10.60;;;18.00;99.90;;;;;;5032343;28;20025;-82
2023/10/02 09:15:44;;;;;;;30.25;13.15;;;18.00;99.90;;;;;;5011415;28;20226;-85
2023/10/02 09:18:22;;;;;;;27.02;13.52;;;18.10;99.90;;;;;;5030446;28;20354;-82
2023/10/02 09:21:12;;;;;;;25.52;11.52;;;18.10;99.90;;;;;;5009785;28;20055;-84
2023/10/02 09:23:53;;;;;;;19.92;9.77;;;18.10;99.90;;;;;;5031099;28;20036;-83
2023/10/02 09:26:32;;;;;;;24.58;10.85;;;18.10;99.90;;;;;;5030263;28;20033;-82
2023/10/02 09:29:03;;;;;;;27.13;11.25;;;18.20;99.90;;;;;;5031002;28;20124;-84
2023/10/02 09:31:38;;;;;;;22.52;10.20;;;18.20;99.90;;;;;;5031448;28;20071;-82
2023/10/02 09:34:10;;;;;;;28.38;10.77;;;18.30;99.90;;;;;;5030403;28;20030;-82
2023/10/02 09:36:52;;;;;;;23.08;11.15;;;18.30;99.90;;;;;;5009475;28;20034;-85
2023/10/02 09:39:36;;;;;;;20.42;9.73;;;18.40;99.90;;;;;;5031843;28;20033;-84
2023/10/02 09:42:09;;;;;;;22.58;11.32;;;18.50;99.90;;;;;;5013568;28;20037;-85
2023/10/02 09:44:45;;;;;;;20.73;10.10;;;18.50;99.90;;;;;;5029615;28;20036;-80
2023/10/02 09:47:20;;;;;;;27.02;10.77;;;18.60;99.90;;;;;;5011178;28;20029;-81
2023/10/02 09:50:10;;;;;;;21.17;10.60;;;18.60;99.90;;;;;;5013753;28;20128;-84
2023/10/02 09:52:57;;;;;;;25.35;13.15;;;18.70;99.90;;;;;;5013533;28;20103;-81
2023/10/02 09:56:00;;;;;;;22.25;11.13;;;18.80;99.90;;;;;;5013350;28;20039;-81
2023/10/02 09:58:48;;;;;;;18.13;9.55;;;18.90;99.90;;;;;;5010709;28;20087;-84
2023/10/02 10:03:55;;;;;;;25.45;10.95;;;19.10;99.90;;;;;;5030190;28;20045;-85
2023/10/02 10:06:27;;;;;;;23.75;11.65;;;19.10;99.90;;;;;;5030057;28;20033;-83
2023/10/02 10:11:43;;;;;;;22.90;11.10;;;19.30;99.90;;;;;;5029289;28;20040;-84
2023/10/02 10:14:45;;;;;;;26.02;10.80;;;19.40;99.90;;;;;;5011787;28;20033;-83
2023/10/02 10:17:16;;;;;;;24.73;11.65;;;19.50;99.90;;;;;;4947166;28;20506;-81
2023/10/02 10:20:09;;;;;;;24.10;11.02;;;19.60;99.90;;;;;;5002950;28;20033;-85
2023/10/02 10:22:35;;;;;;;19.23;9.35;;;19.60;99.90;;;;;;5028404;28;20025;-79
2023/10/02 10:27:40;;;;;;;27.85;9.85;;;19.70;99.90;;;;;;5030782;28;20022;-85
2023/10/02 10:30:24;;;;;;;20.80;10.05;;;19.80;99.90;;;;;;5012659;28;20064;-84
2023/10/02 10:35:51;;;;;;;20.98;10.25;;;20.10;99.90;;;;;;5030314;28;20034;-84
2023/10/02 10:38:34;;;;;;;23.83;10.25;;;20.10;99.90;;;;;;5012967;28;20047;-83
2023/10/02 10:41:00;;;;;;;21.13;10.15;;;20.10;99.90;;;;;;5030686;28;20029;-85
2023/10/02 10:46:27;;;;;;;20.40;10.23;;;20.20;99.90;;;;;;5029600;28;20103;-83
2023/10/02 10:48:59;;;;;;;23.20;10.02;;;20.30;99.90;;;;;;5012017;28;20037;-85
2023/10/02 10:51:28;;;;;;;21.90;10.90;;;20.30;99.90;;;;;;5031835;28;20037;-84
2023/10/02 10:54:12;;;;;;;20.77;10.38;;;20.30;99.90;;;;;;5030028;28;20029;-85
2023/10/02 10:56:44;;;;;;;20.70;10.38;;;20.40;99.90;;;;;;5028413;28;20545;-80
2023/10/02 10:59:35;;;;;;;22.50;10.80;;;20.40;99.90;;;;;;5030504;28;20029;-84
2023/10/02 11:02:17;;;;;;;22.15;10.70;;;20.50;99.90;;;;;;5027885;28;20025;-83
2023/10/02 11:04:47;;;;;;;21.00;10.30;;;20.60;99.90;;;;;;5030114;28;20036;-83
2023/10/02 11:07:19;;;;;;;30.45;11.63;;;20.60;99.90;;;;;;5007785;28;20149;-83
2023/10/02 11:10:14;;;;;;;;;;;20.70;99.90;;;;;;5028671;28;20442;-82
2023/10/02 11:12:57;;;;;;;19.98;10.32;;;20.80;99.90;;;;;;5029285;28;19909;-83
2023/10/02 11:18:20;;;;;;;22.42;9.93;;;20.90;99.90;;;;;;5028805;28;20060;-82
2023/10/02 11:20:54;;;;;;;19.83;10.02;;;21.00;99.90;;;;;;5029010;28;20267;-80
2023/10/02 11:23:37;;;;;;;21.58;10.68;;;21.00;99.90;;;;;;5029519;28;20033;-84
2023/10/02 11:26:10;;;;;;;19.63;9.95;;;21.10;99.90;;;;;;5030304;28;20911;-83
2023/10/02 11:28:40;;;;;;;20.90;10.57;;;21.10;99.90;;;;;;5011032;28;20091;-82
2023/10/02 11:31:36;;;;;;;20.83;10.18;;;21.20;99.90;;;;;;5026694;28;20029;-81
2023/10/02 11:34:05;;;;;;;19.08;9.55;;;21.20;99.90;;;;;;5028455;28;20032;-83
2023/10/02 11:36:39;;;;;;;20.33;9.25;;;21.30;99.90;;;;;;5027903;28;20036;-82
2023/10/02 11:39:16;;;;;;;20.85;10.00;;;21.40;99.90;;;;;;5014772;28;20072;-84
2023/10/02 11:41:42;;;;;;;20.65;10.05;;;21.50;99.90;;;;;;5031331;28;20029;-82
2023/10/02 11:44:12;;;;;;;15.98;9.20;;;21.60;99.90;;;;;;5033747;28;20029;-83
2023/10/02 11:46:38;;;;;;;22.85;10.63;;;21.70;99.90;;;;;;5014427;28;20060;-82
2023/10/02 11:49:06;;;;;;;22.83;10.68;;;21.90;99.90;;;;;;5029696;28;20473;-81
2023/10/02 11:51:33;;;;;;;20.70;9.48;;;22.00;99.90;;;;;;5014319;28;20408;-81
2023/10/02 11:54:00;;;;;;;22.63;10.02;;;22.10;99.90;;;;;;5012860;28;20041;-81
2023/10/02 11:56:29;;;;;;;21.90;10.50;;;22.30;99.90;;;;;;5031499;28;20026;-82
2023/10/02 11:58:56;;;;;;;21.08;9.88;;;22.40;99.90;;;;;;5033261;28;20069;-84
2023/10/02 12:01:22;;;;;;;20.52;9.63;;;22.50;99.90;;;;;;5032589;28;20083;-83
2023/10/02 12:03:51;;;;;;;22.52;9.73;;;22.60;99.90;;;;;;5013486;28;20034;-83
2023/10/02 12:06:17;;;;;;;17.73;8.90;;;22.70;99.90;;;;;;5014981;28;20110;-80
2023/10/02 12:08:44;;;;;;;19.02;10.10;;;22.80;99.90;;;;;;5032196;28;20041;-83
2023/10/02 12:11:13;;;;;;;19.33;9.70;;;22.80;99.90;;;;;;5016735;28;20156;-84
2023/10/02 12:13:44;;;;;;;17.02;8.85;;;22.90;99.90;;;;;;5033492;28;20022;-83
2023/10/02 12:16:11;;;;;;;20.38;10.13;;;22.90;99.90;;;;;;5031114;28;20461;-81
2023/10/02 12:18:41;;;;;;;22.10;9.43;;;23.00;99.90;;;;;;5032423;28;20029;-83
2023/10/02 12:21:11;;;;;;;17.73;8.90;;;23.00;99.90;;;;;;5031512;28;20115;-83
2023/10/02 12:23:40;;;;;;;21.27;9.05;;;23.20;99.90;;;;;;5031759;28;20589;-84
2023/10/02 12:26:12;;;;;;;19.60;9.43;;;23.30;99.90;;;;;;5013718;28;20451;-81
2023/10/02 12:28:38;;;;;;;19.55;9.50;;;23.30;99.90;;;;;;5015142;28;20289;-84
2023/10/02 12:31:13;;;;;;;18.20;9.05;;;23.40;99.90;;;;;;5030277;28;20921;-82
2023/10/02 12:33:43;;;;;;;21.10;9.20;;;23.50;99.90;;;;;;5030657;28;20037;-82
2023/10/02 12:36:17;;;;;;;20.80;10.00;;;23.50;99.90;;;;;;5031587;28;20029;-81
2023/10/02 12:38:43;;;;;;;23.08;10.82;;;23.60;99.90;;;;;;5031157;28;20450;-81
2023/10/02 12:41:15;;;;;;;21.13;10.18;;;23.70;99.90;;;;;;5014661;28;20033;-81
2023/10/02 12:43:45;;;;;;;21.27;10.43;;;23.80;99.90;;;;;;5031767;28;20069;-84
2023/10/02 12:46:14;;;;;;;18.45;9.60;;;23.90;99.90;;;;;;5032119;28;20037;-81
2023/10/02 12:48:48;;;;;;;24.08;10.30;;;24.10;99.90;;;;;;5032626;28;20036;-81
2023/10/02 12:51:14;;;;;;;18.85;9.98;;;24.10;99.90;;;;;;5014584;28;20121;-83
2023/10/02 12:53:41;;;;;;;19.20;9.43;;;24.20;99.90;;;;;;5031222;28;20029;-80
2023/10/02 12:56:07;;;;;;;20.75;10.38;;;24.30;99.90;;;;;;5031020;28;20056;-83
2023/10/02 12:58:33;;;;;;;19.27;9.93;;;24.40;99.90;;;;;;5030041;28;20030;-83
2023/10/02 13:01:02;;;;;;;21.65;10.20;;;24.50;99.90;;;;;;5025901;28;20170;-83
2023/10/02 13:03:34;;;;;;;21.85;11.10;;;24.70;99.90;;;;;;5030722;28;20032;-80
2023/10/02 13:06:01;;;;;;;20.63;10.38;;;24.90;99.90;;;;;;5031369;28;20037;-83
2023/10/02 13:08:27;;;;;;;19.27;10.25;;;25.20;99.90;;;;;;5031440;28;20033;-82
2023/10/02 13:10:58;;;;;;;23.10;12.15;;;25.60;99.90;;;;;;5008878;28;20094;-79
2023/10/02 13:13:26;;;;;;;24.23;10.88;;;26.40;99.90;;;;;;5015700;28;20037;-83
2023/10/02 13:15:54;;;;;;;20.92;10.23;;;27.70;99.90;;;;;;5029065;28;20116;-83
2023/10/02 13:18:20;;;;;;;23.15;11.35;;;28.70;99.90;;;;;;5027850;28;20040;-80
2023/10/02 13:20:47;;;;;;;25.27;12.63;;;29.50;99.90;;;;;;5028460;28;20037;-83
2023/10/02 13:23:12;;;;;;;20.65;10.23;;;30.10;99.90;;;;;;5030267;28;20035;-79
2023/10/02 13:25:39;;;;;;;24.00;10.82;;;30.50;99.80;;;;;;5029513;28;20028;-79
2023/10/02 13:28:05;;;;;;;22.90;10.95;;;30.70;98.70;;;;;;5028895;28;20041;-80
2023/10/02 13:30:33;;;;;;;19.95;11.32;;;30.60;97.40;;;;;;5011579;28;20048;-81
2023/10/02 13:33:01;;;;;;;17.95;11.07;;;30.50;97.50;;;;;;5030068;28;20068;-80
2023/10/02 13:35:32;;;;;;;25.83;11.65;;;30.30;97.60;;;;;;5028843;28;20017;-79
2023/10/02 13:38:00;;;;;;;22.48;10.60;;;30.00;97.30;;;;;;5012825;28;20143;-81
2023/10/02 13:40:28;;;;;;;19.02;11.13;;;29.60;96.80;;;;;;5011482;28;20072;-81
2023/10/02 13:42:57;;;;;;;19.48;10.57;;;29.30;97.10;;;;;;5011832;28;20037;-81
2023/10/02 13:45:24;;;;;;;21.58;11.48;;;29.00;97.60;;;;;;5029416;28;20715;-82
2023/10/02 13:47:52;;;;;;;17.88;10.60;;;28.80;98.10;;;;;;5011391;28;20958;-80
2023/10/02 13:50:19;;;;;;;21.58;11.40;;;28.60;98.30;;;;;;5024104;28;20132;-80
2023/10/02 13:52:44;;;;;;;20.67;11.57;;;28.30;98.40;;;;;;5027920;28;20033;-81
2023/10/02 13:55:19;;;;;;;26.42;12.18;;;28.10;99.20;;;;;;5029987;28;20025;-82
2023/10/02 13:57:56;;;;;;;20.63;10.77;;;28.00;99.50;;;;;;5029196;28;20037;-78
2023/10/02 14:00:22;;;;;;;24.00;11.93;;;27.80;99.80;;;;;;5023825;28;20099;-82
2023/10/02 14:02:52;;;;;;;18.63;9.82;;;27.70;99.70;;;;;;5027787;28;20060;-79
2023/10/02 14:05:21;;;;;;;17.67;10.57;;;27.70;99.90;;;;;;5010346;28;20515;-81